createdAt,value
2023-04-16T00:00:25.966Z,5.82
2023-04-16T00:05:27.743Z,6.32
2023-04-16T00:10:29.545Z,6.11
2023-04-16T00:15:31.357Z,6.38
2023-04-16T00:20:35.316Z,4.95
2023-04-16T00:25:37.105Z,5.93
2023-04-16T00:30:38.884Z,6.38
2023-04-16T00:35:40.862Z,6.82
2023-04-16T00:40:43.770Z,7.00
2023-04-16T00:45:45.966Z,5.92
2023-04-16T00:50:48.649Z,6.08
2023-04-16T00:55:51.034Z,5.22
2023-04-16T01:00:52.945Z,5.38
2023-04-16T01:05:55.777Z,5.95
2023-04-16T01:10:57.662Z,6.38
2023-04-16T01:16:00.884Z,5.96
2023-04-16T01:21:04.021Z,6.27
2023-04-16T01:26:06.019Z,6.41
2023-04-16T01:31:07.932Z,6.64
2023-04-16T01:36:21.530Z,6.77
2023-04-16T01:41:23.561Z,6.98
2023-04-16T01:46:31.905Z,6.90
2023-04-16T01:51:33.984Z,7.15
2023-04-16T01:56:35.837Z,7.17
2023-04-16T02:01:38.160Z,7.20
2023-04-16T02:06:40.044Z,6.52
2023-04-16T02:11:41.869Z,7.02
2023-04-16T02:16:43.800Z,6.49
2023-04-16T02:22:04.373Z,6.34
2023-04-16T02:27:06.491Z,5.58
2023-04-16T02:32:08.588Z,6.16
2023-04-16T02:37:11.348Z,6.32
2023-04-16T02:42:14.349Z,5.01
2023-04-16T02:47:16.294Z,4.27
2023-04-16T02:52:18.144Z,3.40
2023-04-16T02:57:20.163Z,2.61
2023-04-16T03:02:22.138Z,3.50
2023-04-16T03:07:24.113Z,3.94
2023-04-16T03:12:26.047Z,4.01
2023-04-16T03:17:27.944Z,5.19
2023-04-16T03:22:30.729Z,5.90
2023-04-16T03:27:33.084Z,5.25
2023-04-16T03:32:35.003Z,1.52
2023-04-16T03:37:41.641Z,4.26
2023-04-16T03:42:44.145Z,3.97
2023-04-16T03:47:48.625Z,4.81
2023-04-16T03:52:50.542Z,5.27
2023-04-16T03:57:53.924Z,5.97
2023-04-16T04:02:56.167Z,6.04
2023-04-16T04:07:58.665Z,5.89
2023-04-16T04:13:01.707Z,6.14
2023-04-16T04:18:03.790Z,5.97
2023-04-16T04:23:05.816Z,6.31
2023-04-16T04:28:07.778Z,6.56
2023-04-16T04:33:09.673Z,5.68
2023-04-16T04:38:15.589Z,6.23
2023-04-16T04:43:19.052Z,5.95
2023-04-16T04:48:26.230Z,5.35
2023-04-16T04:53:28.321Z,6.50
2023-04-16T04:58:30.349Z,6.47
2023-04-16T05:03:32.460Z,6.21
2023-04-16T05:08:34.289Z,6.66
2023-04-16T05:13:36.180Z,6.72
2023-04-16T05:18:37.945Z,6.33
2023-04-16T05:23:39.685Z,6.41
2023-04-16T05:28:41.442Z,6.47
2023-04-16T05:33:43.308Z,6.90
2023-04-16T05:38:45.221Z,6.84
2023-04-16T05:43:47.022Z,6.81
2023-04-16T05:48:48.942Z,7.06
2023-04-16T05:53:50.854Z,7.28
2023-04-16T05:58:52.666Z,7.47
2023-04-16T06:03:54.714Z,7.30
2023-04-16T06:08:56.674Z,7.67
2023-04-16T06:13:58.532Z,7.72
2023-04-16T06:19:00.409Z,7.05
2023-04-16T06:24:02.552Z,6.55
2023-04-16T06:29:04.721Z,7.34
2023-04-16T06:34:06.504Z,7.58
2023-04-16T06:39:08.657Z,7.61
2023-04-16T06:44:10.707Z,7.79
2023-04-16T06:49:12.919Z,6.88
2023-04-16T06:54:14.795Z,7.32
2023-04-16T06:59:17.001Z,7.69
2023-04-16T07:04:18.910Z,7.76
2023-04-16T07:09:21.026Z,7.71
2023-04-16T07:14:23.106Z,7.88
2023-04-16T07:19:24.998Z,7.69
2023-04-16T07:24:27.323Z,8.09
2023-04-16T07:29:29.067Z,8.34
2023-04-16T07:34:31.111Z,8.60
2023-04-16T07:39:32.861Z,8.05
2023-04-16T07:44:34.610Z,8.18
2023-04-16T07:49:36.465Z,8.28
2023-04-16T07:54:38.243Z,6.14
2023-04-16T07:59:40.233Z,6.84
2023-04-16T08:04:42.900Z,7.82
2023-04-16T08:09:49.700Z,8.60
2023-04-16T08:14:51.603Z,6.81
2023-04-16T08:19:53.469Z,5.11
2023-04-16T08:24:56.729Z,3.48
2023-04-16T08:29:58.592Z,5.96
2023-04-16T08:35:00.598Z,5.05
2023-04-16T08:40:03.505Z,5.57
2023-04-16T08:45:18.827Z,4.77
2023-04-16T08:50:25.023Z,7.55
2023-04-16T08:55:35.559Z,6.55
2023-04-16T09:00:39.418Z,7.29
2023-04-16T09:05:42.681Z,5.55
2023-04-16T09:10:44.469Z,3.96
2023-04-16T09:15:46.542Z,4.47
2023-04-16T09:20:51.916Z,7.00
2023-04-16T09:25:53.995Z,7.14
2023-04-16T09:31:17.500Z,2.05
2023-04-16T09:36:23.151Z,2.30
2023-04-16T09:41:27.648Z,1.98
2023-04-16T09:46:30.788Z,2.07
2023-04-16T09:51:44.349Z,2.55
2023-04-16T09:56:47.068Z,1.70
2023-04-16T10:01:50.384Z,0.99
2023-04-16T10:07:06.307Z,4.04
2023-04-16T10:12:08.703Z,1.18
2023-04-16T10:17:10.708Z,2.28
2023-04-16T10:22:12.903Z,2.10
2023-04-16T10:27:14.718Z,2.06
2023-04-16T10:32:18.587Z,1.30
2023-04-16T10:37:30.008Z,3.56
2023-04-16T10:42:31.897Z,5.46
2023-04-16T10:47:40.768Z,2.72
2023-04-16T10:52:42.724Z,2.43
2023-04-16T10:57:49.601Z,4.59
2023-04-16T11:02:54.812Z,2.26
2023-04-16T11:08:13.521Z,1.94
2023-04-16T11:13:16.949Z,2.97
2023-04-16T11:18:21.867Z,2.02
2023-04-16T11:23:23.752Z,4.52
2023-04-16T11:28:35.902Z,3.19
2023-04-16T11:33:38.069Z,4.32
2023-04-16T11:38:43.183Z,5.85
2023-04-16T11:43:45.135Z,5.10
2023-04-16T11:48:51.117Z,6.93
2023-04-16T11:53:54.304Z,7.56
2023-04-16T11:59:25.586Z,7.58
2023-04-16T12:04:27.997Z,5.60
2023-04-16T12:09:29.859Z,4.28
2023-04-16T12:14:32.141Z,4.14
2023-04-16T12:19:47.765Z,3.34
2023-04-16T12:24:49.563Z,3.64
2023-04-16T12:30:07.387Z,6.18
2023-04-16T12:35:12.594Z,4.71
2023-04-16T12:40:14.352Z,2.96
2023-04-16T12:45:16.127Z,4.52
2023-04-16T12:50:18.388Z,4.60
2023-04-16T12:55:20.522Z,5.85
2023-04-16T13:00:22.651Z,6.27
2023-04-16T13:05:24.440Z,5.06
2023-04-16T13:10:27.827Z,4.24
2023-04-16T13:15:29.664Z,3.87
2023-04-16T13:20:31.478Z,3.18
2023-04-16T13:25:33.331Z,5.51
2023-04-16T13:30:35.205Z,4.41
2023-04-16T13:35:37.312Z,3.27
2023-04-16T13:40:39.106Z,4.61
2023-04-16T13:45:41.533Z,3.53
2023-04-16T13:50:43.846Z,4.74
2023-04-16T13:55:45.868Z,5.31
2023-04-16T14:00:47.782Z,5.28
2023-04-16T14:05:49.626Z,5.24
2023-04-16T14:10:51.753Z,4.71
2023-04-16T14:15:54.829Z,5.46
2023-04-16T14:20:56.738Z,4.55
2023-04-16T14:25:58.793Z,4.40
2023-04-16T14:31:00.620Z,4.82
2023-04-16T14:36:03.450Z,5.69
2023-04-16T14:41:05.531Z,5.47
2023-04-16T14:46:07.472Z,4.65
2023-04-16T14:51:09.548Z,5.55
2023-04-16T14:56:12.981Z,7.24
2023-04-16T15:01:15.043Z,4.41
2023-04-16T15:06:17.067Z,6.18
2023-04-16T15:11:19.106Z,4.81
2023-04-16T15:16:21.431Z,4.99
2023-04-16T15:21:23.370Z,5.56
2023-04-16T15:26:26.026Z,5.26
2023-04-16T15:31:27.958Z,6.53
2023-04-16T15:36:29.978Z,4.92
2023-04-16T15:41:32.002Z,5.01
2023-04-16T15:46:33.918Z,4.51
2023-04-16T15:51:36.191Z,5.38
2023-04-16T15:56:38.236Z,6.29
2023-04-16T16:01:40.203Z,5.58
2023-04-16T16:06:42.465Z,5.23
2023-04-16T16:11:44.473Z,6.15
2023-04-16T16:16:46.402Z,5.48
2023-04-16T16:21:48.375Z,9.82
2023-04-16T16:26:50.341Z,9.81
2023-04-16T16:31:52.335Z,9.47
2023-04-16T16:36:54.210Z,8.53
2023-04-16T16:41:56.893Z,11.11
2023-04-16T16:46:58.892Z,11.43
2023-04-16T16:52:00.957Z,9.25
2023-04-16T16:57:03.360Z,9.73
2023-04-16T17:02:05.783Z,10.15
2023-04-16T17:07:07.701Z,11.18
2023-04-16T17:12:09.535Z,11.23
2023-04-16T17:17:11.362Z,10.91
2023-04-16T17:22:13.328Z,11.32
2023-04-16T17:27:15.153Z,11.12
2023-04-16T17:32:17.081Z,11.03
2023-04-16T17:37:18.941Z,9.67
2023-04-16T17:42:20.789Z,9.71
2023-04-16T17:47:22.684Z,10.35
2023-04-16T17:52:24.505Z,10.84
2023-04-16T17:57:27.263Z,9.70
2023-04-16T18:02:29.192Z,9.73
2023-04-16T18:07:32.513Z,8.42
2023-04-16T18:12:34.444Z,8.30
2023-04-16T18:17:36.405Z,8.93
2023-04-16T18:22:38.249Z,8.32
2023-04-16T18:27:40.020Z,7.69
2023-04-16T18:32:59.882Z,8.25
2023-04-16T18:38:03.692Z,9.18
2023-04-16T18:43:05.718Z,9.98
2023-04-16T18:48:07.531Z,9.29
2023-04-16T18:53:09.391Z,10.47
2023-04-16T18:58:11.641Z,9.30
2023-04-16T19:03:13.571Z,9.90
2023-04-16T19:08:15.418Z,7.53
2023-04-16T19:13:17.163Z,9.00
2023-04-16T19:18:18.987Z,9.58
2023-04-16T19:23:21.202Z,10.15
2023-04-16T19:28:23.802Z,10.10
2023-04-16T19:33:25.770Z,9.81
2023-04-16T19:38:27.740Z,10.32
2023-04-16T19:43:31.056Z,10.32
2023-04-16T19:48:33.010Z,9.88
2023-04-16T19:53:34.881Z,9.98
2023-04-16T19:58:36.818Z,10.14
2023-04-16T20:03:38.899Z,9.90
2023-04-16T20:08:40.887Z,10.10
2023-04-16T20:13:43.216Z,9.27
2023-04-16T20:18:46.169Z,9.49
2023-04-16T20:23:48.162Z,8.87
2023-04-16T20:28:49.987Z,9.30
2023-04-16T20:33:51.767Z,7.36
2023-04-16T20:38:53.987Z,8.06
2023-04-16T20:43:56.063Z,8.02
2023-04-16T20:48:57.923Z,5.95
2023-04-16T20:53:59.692Z,5.75
2023-04-16T20:59:01.595Z,5.66
2023-04-16T21:04:03.645Z,5.78
2023-04-16T21:09:06.070Z,4.95
2023-04-16T21:14:07.937Z,3.70
2023-04-16T21:19:10.054Z,5.25
2023-04-16T21:24:12.090Z,4.28
2023-04-16T21:29:13.950Z,6.29
2023-04-16T21:34:16.032Z,6.83
2023-04-16T21:39:19.797Z,6.21
2023-04-16T21:44:21.607Z,6.17
2023-04-16T21:49:23.455Z,6.04
2023-04-16T21:54:25.489Z,6.39
2023-04-16T21:59:27.412Z,7.10
2023-04-16T22:04:37.284Z,4.88
2023-04-16T22:09:39.106Z,7.15
2023-04-16T22:14:49.227Z,7.10
2023-04-16T22:20:00.701Z,4.80
2023-04-16T22:25:03.420Z,6.44
2023-04-16T22:30:07.403Z,6.36
2023-04-16T22:35:09.540Z,5.45
2023-04-16T22:40:11.956Z,3.33
2023-04-16T22:45:13.917Z,2.91
2023-04-16T22:50:16.102Z,5.92
2023-04-16T22:55:18.060Z,6.22
2023-04-16T23:00:20.860Z,4.99
2023-04-16T23:05:22.675Z,6.22
2023-04-16T23:10:24.509Z,7.33
2023-04-16T23:15:26.398Z,7.65
2023-04-16T23:20:29.057Z,7.27
2023-04-16T23:25:31.065Z,7.48
2023-04-16T23:30:32.859Z,7.46
2023-04-16T23:35:34.716Z,5.61
2023-04-16T23:40:36.472Z,7.14
2023-04-16T23:45:38.220Z,6.24
2023-04-16T23:50:40.038Z,6.53
2023-04-16T23:55:41.811Z,6.19
